Time;durP1;ratioP1;P1;durP2;ratioP2;P2;SDS_P1;SDS_P2;PMS_P1;PMS_P2;Temp;Humidity;BMP_temperature;BMP_pressure;BME280_temperature;BME280_humidity;BME280_pressure;Samples;Min_cycle;Max_cycle;Signal;HPM_P1;HPM_P2
2023/06/23 00:00:11;;;;;;;8.20;5.90;;;;;;;-128.00;-1.00;-1.00;97772;293;1004433;-31
2023/06/23 00:02:39;;;;;;;8.40;6.10;;;;;;;-128.00;-1.00;-1.00;97853;293;1004392;-36
2023/06/23 00:05:07;;;;;;;7.30;4.70;;;;;;;-128.00;-1.00;-1.00;97792;293;1005454;-36
2023/06/23 00:07:34;;;;;;;5.90;5.20;;;;;;;-128.00;-1.00;-1.00;97886;293;1005722;-32
2023/06/23 00:10:00;;;;;;;5.20;4.20;;;;;;;-128.00;-1.00;-1.00;97811;293;1006223;-32
2023/06/23 00:12:26;;;;;;;7.70;5.30;;;;;;;-128.00;-1.00;-1.00;97892;293;1005511;-30
2023/06/23 00:14:51;;;;;;;5.30;4.90;;;;;;;-128.00;-1.00;-1.00;97745;293;1005168;-35
2023/06/23 00:17:17;;;;;;;7.50;5.60;;;;;;;-128.00;-1.00;-1.00;97660;293;1005031;-30
2023/06/23 00:19:43;;;;;;;8.90;7.90;;;;;;;-128.00;-1.00;-1.00;97891;293;1005900;-34
2023/06/23 00:22:08;;;;;;;11.00;7.90;;;;;;;-128.00;-1.00;-1.00;97821;293;1005783;-30
2023/06/23 00:24:34;;;;;;;11.90;9.60;;;;;;;-128.00;-1.00;-1.00;97754;293;1004868;-34
2023/06/23 00:27:00;;;;;;;16.20;14.10;;;;;;;-128.00;-1.00;-1.00;97800;293;1004483;-36
2023/06/23 00:29:26;;;;;;;14.90;13.50;;;;;;;-128.00;-1.00;-1.00;97146;293;1005677;-31
2023/06/23 00:31:51;;;;;;;9.50;8.40;;;;;;;-128.00;-1.00;-1.00;97884;293;1004899;-31
2023/06/23 00:34:17;;;;;;;18.40;16.00;;;;;;;-128.00;-1.00;-1.00;97908;293;1005729;-32
2023/06/23 00:36:42;;;;;;;15.70;14.20;;;;;;;-128.00;-1.00;-1.00;97745;293;1005350;-36
2023/06/23 01:19:37;;;;;;;27.10;24.20;;;;;;;-98.69;15.01;19793.03;98481;293;1546048;-30
2023/06/23 01:22:21;;;;;;;20.50;18.40;;;;;;;-128.00;-1.00;-1.00;97309;293;1003260;-30
2023/06/23 01:25:00;;;;;;;27.20;22.50;;;;;;;-128.00;-1.00;-1.00;97459;292;1003106;-30
2023/06/23 01:27:45;;;;;;;7.50;6.50;;;;;;;-128.00;-1.00;-1.00;97401;280;1004284;-30
2023/06/23 01:30:13;;;;;;;8.90;6.40;;;;;;;-128.00;-1.00;-1.00;97361;292;1005377;-30
2023/06/23 01:32:43;;;;;;;12.40;9.10;;;;;;;-128.00;-1.00;-1.00;98020;292;1004005;-31
2023/06/23 01:35:12;;;;;;;21.80;16.00;;;;;;;-128.00;-1.00;-1.00;97923;292;1004464;-29
2023/06/23 01:37:37;;;;;;;9.40;7.90;;;;;;;-128.00;-1.00;-1.00;97939;286;1006641;-35
2023/06/23 01:40:09;;;;;;;14.10;11.40;;;;;;;-128.00;-1.00;-1.00;97888;292;1005523;-30
2023/06/23 01:42:38;;;;;;;14.00;8.30;;;;;;;-128.00;-1.00;-1.00;97930;288;1005114;-30
2023/06/23 01:45:04;;;;;;;9.80;7.90;;;;;;;-128.00;-1.00;-1.00;97898;292;1005600;-34
2023/06/23 01:47:32;;;;;;;9.20;6.70;;;;;;;-128.00;-1.00;-1.00;97853;292;1005102;-37
2023/06/23 01:50:00;;;;;;;10.60;7.10;;;;;;;-128.00;-1.00;-1.00;97872;292;1004866;-34
2023/06/23 01:52:26;;;;;;;14.30;6.70;;;;;;;-128.00;-1.00;-1.00;97925;292;1004561;-34
2023/06/23 01:54:52;;;;;;;8.70;7.70;;;;;;;-128.00;-1.00;-1.00;97534;292;1004626;-30
2023/06/23 01:57:18;;;;;;;8.30;6.80;;;;;;;-128.00;-1.00;-1.00;98291;292;1004099;-30
2023/06/23 01:59:44;;;;;;;7.90;6.90;;;;;;;-128.00;-1.00;-1.00;98098;292;1003087;-37
2023/06/23 02:02:09;;;;;;;7.00;6.40;;;;;;;-128.00;-1.00;-1.00;98110;292;1003399;-32
2023/06/23 02:04:35;;;;;;;6.40;5.80;;;;;;;-128.00;-1.00;-1.00;98287;292;1002751;-34
2023/06/23 02:07:01;;;;;;;8.00;6.70;;;;;;;-128.00;-1.00;-1.00;98220;292;1002980;-34
2023/06/23 02:09:27;;;;;;;11.40;7.10;;;;;;;-128.00;-1.00;-1.00;98166;292;1003811;-34
2023/06/23 02:11:54;;;;;;;6.30;5.30;;;;;;;-128.00;-1.00;-1.00;98133;292;1003041;-36
2023/06/23 02:14:20;;;;;;;5.80;5.30;;;;;;;-128.00;-1.00;-1.00;97926;295;1002925;-32
2023/06/23 02:16:46;;;;;;;7.00;6.20;;;;;;;-128.00;-1.00;-1.00;96863;292;1003491;-29
2023/06/23 02:19:12;;;;;;;7.60;6.10;;;;;;;-128.00;-1.00;-1.00;98202;292;1002781;-34
2023/06/23 02:21:37;;;;;;;8.10;7.20;;;;;;;-128.00;-1.00;-1.00;98160;292;1003982;-36
2023/06/23 02:24:05;;;;;;;8.00;7.00;;;;;;;-128.00;-1.00;-1.00;98234;292;1003088;-34
2023/06/23 02:26:33;;;;;;;23.50;21.20;;;;;;;-128.00;-1.00;-1.00;98206;292;1002654;-30
2023/06/23 02:28:59;;;;;;;114.60;98.40;;;;;;;-128.00;-1.00;-1.00;98086;292;1002542;-30
2023/06/23 02:31:24;;;;;;;100.00;87.30;;;;;;;-128.00;-1.00;-1.00;98135;292;1003993;-37
2023/06/23 02:33:50;;;;;;;71.70;59.30;;;;;;;-128.00;-1.00;-1.00;98159;292;1002486;-34
2023/06/23 02:36:19;;;;;;;34.90;31.20;;;;;;;-128.00;-1.00;-1.00;98101;292;1002861;-34
2023/06/23 02:38:47;;;;;;;13.60;11.90;;;;;;;-128.00;-1.00;-1.00;98086;292;1004148;-36
2023/06/23 02:41:13;;;;;;;11.40;9.30;;;;;;;-128.00;-1.00;-1.00;98145;292;1002769;-31
2023/06/23 02:43:55;;;;;;;12.10;11.00;;;;;;;-128.00;-1.00;-1.00;98163;292;1002726;-34
2023/06/23 02:46:26;;;;;;;34.50;30.00;;;;;;;-128.00;-1.00;-1.00;98092;292;1002474;-35
2023/06/23 02:48:54;;;;;;;10.50;7.30;;;;;;;-128.00;-1.00;-1.00;98233;292;1003680;-34
2023/06/23 02:51:21;;;;;;;7.80;6.90;;;;;;;-128.00;-1.00;-1.00;98079;292;1004043;-35
2023/06/23 02:53:50;;;;;;;8.70;7.90;;;;;;;-128.00;-1.00;-1.00;98196;292;1004046;-31
2023/06/23 02:56:20;;;;;;;19.40;17.40;;;;;;;-128.00;-1.00;-1.00;98132;292;1002577;-31
2023/06/23 02:58:46;;;;;;;9.70;8.40;;;;;;;-128.00;-1.00;-1.00;98163;292;1003152;-38
2023/06/23 03:01:13;;;;;;;9.40;8.10;;;;;;;-128.00;-1.00;-1.00;98239;292;1004538;-31
2023/06/23 03:03:39;;;;;;;9.30;7.90;;;;;;;-128.00;-1.00;-1.00;98077;292;1003220;-31
2023/06/23 03:06:04;;;;;;;9.20;8.20;;;;;;;-128.00;-1.00;-1.00;98018;292;1004785;-31
2023/06/23 03:08:30;;;;;;;11.60;9.00;;;;;;;-128.00;-1.00;-1.00;98084;292;1003897;-35
2023/06/23 03:10:56;;;;;;;10.20;8.40;;;;;;;-128.00;-1.00;-1.00;98098;292;1004108;-31
2023/06/23 03:13:21;;;;;;;10.40;8.10;;;;;;;-128.00;-1.00;-1.00;98028;292;1003128;-31
2023/06/23 03:15:48;;;;;;;9.50;8.00;;;;;;;-128.00;-1.00;-1.00;98165;292;1002692;-31
2023/06/23 03:18:16;;;;;;;9.30;6.70;;;;;;;-128.00;-1.00;-1.00;98106;292;1003023;-34
2023/06/23 03:20:46;;;;;;;11.20;7.90;;;;;;;-128.00;-1.00;-1.00;98125;292;1004641;-35
2023/06/23 03:23:13;;;;;;;9.50;6.00;;;;;;;-128.00;-1.00;-1.00;98132;292;1002673;-33
2023/06/23 03:25:41;;;;;;;9.60;7.60;;;;;;;-128.00;-1.00;-1.00;98238;292;1002782;-33
2023/06/23 03:28:09;;;;;;;8.00;6.80;;;;;;;-128.00;-1.00;-1.00;98175;292;1003101;-30
2023/06/23 03:30:39;;;;;;;12.20;8.00;;;;;;;-128.00;-1.00;-1.00;97962;294;1003594;-31
2023/06/23 03:33:11;;;;;;;10.40;7.80;;;;;;;-128.00;-1.00;-1.00;98052;292;1003829;-35
2023/06/23 03:35:40;;;;;;;7.80;6.70;;;;;;;-128.00;-1.00;-1.00;98191;292;1002492;-30
2023/06/23 03:38:08;;;;;;;4.80;3.80;;;;;;;-128.00;-1.00;-1.00;98240;292;1003297;-31
2023/06/23 03:40:48;;;;;;;8.90;7.80;;;;;;;-128.00;-1.00;-1.00;98085;292;1002203;-35
2023/06/23 03:43:37;;;;;;;13.00;7.40;;;;;;;-128.00;-1.00;-1.00;98070;292;1002609;-35
2023/06/23 03:46:06;;;;;;;7.80;5.90;;;;;;;-128.00;-1.00;-1.00;98054;292;1002702;-32
2023/06/23 03:48:32;;;;;;;13.80;9.00;;;;;;;-128.00;-1.00;-1.00;98128;281;1004173;-38
2023/06/23 03:50:59;;;;;;;21.20;11.10;;;;;;;-128.00;-1.00;-1.00;98216;292;1003152;-37
2023/06/23 03:53:25;;;;;;;16.90;11.10;;;;;;;-128.00;-1.00;-1.00;98149;292;1002515;-36
2023/06/23 03:55:51;;;;;;;17.80;11.80;;;;;;;-128.00;-1.00;-1.00;98181;292;1003240;-40
2023/06/23 03:58:16;;;;;;;19.40;11.40;;;;;;;-128.00;-1.00;-1.00;98134;292;1002115;-36
2023/06/23 04:00:42;;;;;;;20.20;16.40;;;;;;;-128.00;-1.00;-1.00;98196;292;1003636;-35
2023/06/23 04:03:08;;;;;;;19.00;14.30;;;;;;;-128.00;-1.00;-1.00;98048;292;1004797;-37
2023/06/23 04:05:36;;;;;;;17.30;11.80;;;;;;;-128.00;-1.00;-1.00;98057;292;1004552;-35
2023/06/23 04:08:01;;;;;;;21.40;13.40;;;;;;;-128.00;-1.00;-1.00;98065;292;1004154;-37
2023/06/23 04:10:27;;;;;;;17.20;13.20;;;;;;;-128.00;-1.00;-1.00;98123;292;1003478;-34
2023/06/23 04:12:53;;;;;;;14.80;11.20;;;;;;;-128.00;-1.00;-1.00;98082;292;1002764;-34
2023/06/23 04:15:19;;;;;;;15.40;11.60;;;;;;;-128.00;-1.00;-1.00;98056;292;1002768;-37
2023/06/23 04:17:44;;;;;;;9.60;8.10;;;;;;;-128.00;-1.00;-1.00;98269;292;1002846;-34
2023/06/23 04:20:10;;;;;;;34.70;16.80;;;;;;;-128.00;-1.00;-1.00;98216;292;1002754;-37
2023/06/23 04:22:37;;;;;;;32.90;22.80;;;;;;;-128.00;-1.00;-1.00;98181;292;1004580;-35
2023/06/23 04:25:03;;;;;;;23.30;20.00;;;;;;;-128.00;-1.00;-1.00;98113;281;1002096;-36
2023/06/23 04:27:29;;;;;;;32.00;14.90;;;;;;;-128.00;-1.00;-1.00;98257;292;1004124;-36
2023/06/23 04:29:54;;;;;;;17.30;14.30;;;;;;;-128.00;-1.00;-1.00;98165;292;1003681;-37
2023/06/23 04:32:20;;;;;;;24.20;15.80;;;;;;;-128.00;-1.00;-1.00;98171;292;1002329;-34
2023/06/23 04:34:46;;;;;;;13.50;10.90;;;;;;;-128.00;-1.00;-1.00;98096;292;1002572;-37
2023/06/23 04:37:26;;;;;;;33.80;18.00;;;;;;;-128.00;-1.00;-1.00;98103;292;1003550;-37
2023/06/23 04:40:02;;;;;;;33.00;19.00;;;;;;;-128.00;-1.00;-1.00;98181;292;1002573;-34
2023/06/23 04:42:42;;;;;;;28.60;20.50;;;;;;;-128.00;-1.00;-1.00;98078;292;1002667;-37
2023/06/23 04:45:08;;;;;;;26.90;18.10;;;;;;;-128.00;-1.00;-1.00;98100;293;1002170;-37
2023/06/23 04:47:35;;;;;;;24.80;17.30;;;;;;;-128.00;-1.00;-1.00;98272;292;1002606;-37
2023/06/23 04:50:03;;;;;;;32.20;19.90;;;;;;;-128.00;-1.00;-1.00;98231;292;1004062;-34
2023/06/23 04:52:29;;;;;;;29.90;20.70;;;;;;;-128.00;-1.00;-1.00;98116;292;1002441;-36
2023/06/23 04:54:58;;;;;;;21.30;14.30;;;;;;;-128.00;-1.00;-1.00;98122;281;1003602;-38
2023/06/23 04:57:27;;;;;;;22.50;15.40;;;;;;;-128.00;-1.00;-1.00;98124;292;1004124;-33
2023/06/23 04:59:54;;;;;;;25.90;17.70;;;;;;;-128.00;-1.00;-1.00;98214;292;1002848;-34
2023/06/23 05:02:20;;;;;;;26.40;19.00;;;;;;;-128.00;-1.00;-1.00;98097;292;1003619;-34
2023/06/23 05:04:46;;;;;;;21.80;15.50;;;;;;;-128.00;-1.00;-1.00;98228;292;1003190;-35
2023/06/23 05:07:12;;;;;;;21.80;15.70;;;;;;;-128.00;-1.00;-1.00;98072;292;1004833;-34
2023/06/23 05:09:38;;;;;;;21.00;14.30;;;;;;;-128.00;-1.00;-1.00;98063;292;1002748;-35
2023/06/23 05:12:04;;;;;;;15.60;12.50;;;;;;;-128.00;-1.00;-1.00;98260;292;1002758;-34
2023/06/23 05:14:30;;;;;;;19.20;13.80;;;;;;;-128.00;-1.00;-1.00;98069;292;1004164;-33
2023/06/23 05:16:57;;;;;;;27.80;19.30;;;;;;;-128.00;-1.00;-1.00;98159;292;1003271;-37
2023/06/23 05:19:23;;;;;;;25.10;14.90;;;;;;;-128.00;-1.00;-1.00;98100;292;1004939;-37
2023/06/23 05:21:49;;;;;;;24.00;17.90;;;;;;;-128.00;-1.00;-1.00;98159;292;1002399;-36
2023/06/23 05:24:15;;;;;;;11.00;9.30;;;;;;;-128.00;-1.00;-1.00;98171;292;1003604;-35
2023/06/23 05:26:41;;;;;;;19.70;12.90;;;;;;;-128.00;-1.00;-1.00;98017;292;1003276;-37
2023/06/23 05:29:08;;;;;;;26.50;16.90;;;;;;;-128.00;-1.00;-1.00;98041;292;1002879;-36
2023/06/23 05:31:40;;;;;;;22.50;13.60;;;;;;;-128.00;-1.00;-1.00;98179;292;1004020;-34
2023/06/23 05:34:07;;;;;;;30.90;19.60;;;;;;;-128.00;-1.00;-1.00;98057;282;1003435;-33
2023/06/23 05:36:33;;;;;;;19.90;15.20;;;;;;;-128.00;-1.00;-1.00;98239;292;1004053;-36
2023/06/23 05:38:59;;;;;;;27.80;16.10;;;;;;;-128.00;-1.00;-1.00;98113;292;1002848;-35
2023/06/23 05:41:25;;;;;;;20.10;15.00;;;;;;;-128.00;-1.00;-1.00;98074;292;1002267;-34
2023/06/23 05:43:50;;;;;;;26.50;19.80;;;;;;;-128.00;-1.00;-1.00;98046;292;1003734;-36
2023/06/23 05:46:16;;;;;;;18.30;14.30;;;;;;;-128.00;-1.00;-1.00;98098;292;1004050;-37
2023/06/23 05:48:48;;;;;;;21.40;16.70;;;;;;;-128.00;-1.00;-1.00;98163;292;1002650;-34
2023/06/23 05:51:17;;;;;;;25.30;18.50;;;;;;;-128.00;-1.00;-1.00;98135;281;1002175;-34
2023/06/23 05:53:42;;;;;;;23.40;16.80;;;;;;;-128.00;-1.00;-1.00;98258;292;1002801;-37
2023/06/23 05:56:16;;;;;;;23.40;17.10;;;;;;;-128.00;-1.00;-1.00;98195;292;1002503;-34
2023/06/23 05:58:43;;;;;;;;;;;;;;;-128.00;-1.00;-1.00;98143;292;1002706;-37
2023/06/23 06:01:12;;;;;;;25.30;14.40;;;;;;;-128.00;-1.00;-1.00;98181;292;1004142;-34
2023/06/23 06:03:40;;;;;;;25.50;15.30;;;;;;;-128.00;-1.00;-1.00;98257;292;1002812;-35
2023/06/23 06:06:07;;;;;;;14.90;13.00;;;;;;;-128.00;-1.00;-1.00;98223;292;1002761;-37
2023/06/23 06:08:34;;;;;;;28.20;16.60;;;;;;;-128.00;-1.00;-1.00;98111;292;1003670;-34
2023/06/23 06:10:59;;;;;;;21.40;15.10;;;;;;;-128.00;-1.00;-1.00;98111;292;1003714;-37
2023/06/23 06:13:25;;;;;;;24.70;14.30;;;;;;;-128.00;-1.00;-1.00;98183;292;1002676;-36
2023/06/23 06:15:54;;;;;;;18.60;14.50;;;;;;;-128.00;-1.00;-1.00;98025;292;1004127;-37
2023/06/23 06:18:19;;;;;;;16.70;14.00;;;;;;;-128.00;-1.00;-1.00;98145;292;1002510;-37
2023/06/23 06:20:45;;;;;;;13.00;11.60;;;;;;;-128.00;-1.00;-1.00;98107;292;1002423;-37
2023/06/23 06:23:11;;;;;;;24.80;15.30;;;;;;;-128.00;-1.00;-1.00;98182;292;1002431;-37
2023/06/23 06:25:36;;;;;;;23.20;15.60;;;;;;;-128.00;-1.00;-1.00;98196;292;1002741;-34
2023/06/23 06:28:03;;;;;;;15.80;13.50;;;;;;;-128.00;-1.00;-1.00;98084;292;1004065;-38
2023/06/23 06:30:31;;;;;;;14.30;12.80;;;;;;;-128.00;-1.00;-1.00;98093;292;1003621;-34
2023/06/23 06:32:57;;;;;;;20.10;15.50;;;;;;;-128.00;-1.00;-1.00;98142;292;1003004;-34
2023/06/23 06:35:22;;;;;;;17.60;14.40;;;;;;;-128.00;-1.00;-1.00;98164;292;1003225;-33
2023/06/23 06:37:48;;;;;;;18.10;14.40;;;;;;;-128.00;-1.00;-1.00;98089;292;1003547;-34
2023/06/23 06:40:15;;;;;;;20.20;12.90;;;;;;;-128.00;-1.00;-1.00;98143;292;1004593;-33
2023/06/23 06:42:41;;;;;;;16.40;12.80;;;;;;;-128.00;-1.00;-1.00;98243;292;1003585;-37
2023/06/23 06:45:07;;;;;;;16.50;12.80;;;;;;;-128.00;-1.00;-1.00;98092;292;1002203;-34
2023/06/23 06:47:34;;;;;;;13.10;10.00;;;;;;;-128.00;-1.00;-1.00;98137;292;1003117;-39
2023/06/23 06:50:00;;;;;;;13.30;10.70;;;;;;;-128.00;-1.00;-1.00;98066;281;1002752;-38
2023/06/23 06:52:26;;;;;;;17.90;14.10;;;;;;;-128.00;-1.00;-1.00;30179;292;7505440;-36
2023/06/23 06:54:53;;;;;;;18.10;14.50;;;;;;;-128.00;-1.00;-1.00;18923;292;7504958;-35
2023/06/23 06:57:19;;;;;;;19.30;15.50;;;;;;;-128.00;-1.00;-1.00;18923;292;7505151;-38
2023/06/23 06:59:46;;;;;;;17.80;14.10;;;;;;;-128.00;-1.00;-1.00;18930;292;7505304;-38
2023/06/23 07:02:12;;;;;;;15.30;11.50;;;;;;;-128.00;-1.00;-1.00;18496;292;7504708;-37
2023/06/23 07:04:39;;;;;;;11.30;10.10;;;;;;;-128.00;-1.00;-1.00;18488;292;7506135;-34
2023/06/23 07:07:05;;;;;;;18.30;14.30;;;;;;;-128.00;-1.00;-1.00;18510;292;7506539;-34
2023/06/23 07:09:30;;;;;;;16.00;13.60;;;;;;;-128.00;-1.00;-1.00;18529;292;7504504;-35
2023/06/23 07:11:59;;;;;;;18.40;14.70;;;;;;;-128.00;-1.00;-1.00;18513;292;7506184;-37
2023/06/23 07:14:25;;;;;;;17.10;15.00;;;;;;;-128.00;-1.00;-1.00;18502;292;7504330;-34
2023/06/23 07:16:50;;;;;;;18.30;16.30;;;;;;;-128.00;-1.00;-1.00;18510;292;7504438;-40
2023/06/23 07:19:16;;;;;;;19.00;14.00;;;;;;;-128.00;-1.00;-1.00;18524;292;7504105;-32
2023/06/23 07:21:42;;;;;;;22.00;16.40;;;;;;;-128.00;-1.00;-1.00;18542;292;7504294;-34
2023/06/23 07:24:08;;;;;;;23.90;14.40;;;;;;;-128.00;-1.00;-1.00;18515;292;7506561;-36
2023/06/23 07:26:37;;;;;;;23.00;14.90;;;;;;;-128.00;-1.00;-1.00;18904;292;7504296;-37
2023/06/23 07:29:03;;;;;;;11.90;9.60;;;;;;;-128.00;-1.00;-1.00;18510;292;7505072;-32
2023/06/23 07:31:30;;;;;;;17.10;12.40;;;;;;;-128.00;-1.00;-1.00;18503;292;7504324;-36
2023/06/23 07:33:56;;;;;;;17.60;12.20;;;;;;;-128.00;-1.00;-1.00;18500;292;7506129;-33
2023/06/23 07:36:22;;;;;;;14.40;11.70;;;;;;;-128.00;-1.00;-1.00;18530;292;7504832;-36
2023/06/23 07:38:48;;;;;;;14.90;9.00;;;;;;;-128.00;-1.00;-1.00;18924;292;7504353;-34
2023/06/23 07:41:14;;;;;;;26.30;12.60;;;;;;;-128.00;-1.00;-1.00;18509;292;7505824;-33
2023/06/23 07:43:43;;;;;;;18.40;8.80;;;;;;;-128.00;-1.00;-1.00;18484;294;7504889;-36
2023/06/23 07:46:09;;;;;;;13.20;10.20;;;;;;;-128.00;-1.00;-1.00;18512;337;7504837;-37
2023/06/23 07:48:35;;;;;;;12.10;9.00;;;;;;;-128.00;-1.00;-1.00;18518;292;7504213;-33
2023/06/23 07:51:02;;;;;;;19.60;11.00;;;;;;;-128.00;-1.00;-1.00;18905;292;7504324;-35
2023/06/23 07:53:28;;;;;;;15.80;10.50;;;;;;;-128.00;-1.00;-1.00;18508;292;7504890;-33
2023/06/23 07:55:53;;;;;;;12.20;9.40;;;;;;;-128.00;-1.00;-1.00;18518;292;7506141;-36
2023/06/23 07:58:19;;;;;;;18.50;10.40;;;;;;;-128.00;-1.00;-1.00;18922;292;7504382;-36
2023/06/23 08:00:46;;;;;;;11.70;10.00;;;;;;;-128.00;-1.00;-1.00;18918;292;7504566;-34
2023/06/23 08:03:12;;;;;;;11.20;9.70;;;;;;;-128.00;-1.00;-1.00;18553;292;7505384;-33
2023/06/23 08:05:38;;;;;;;32.50;12.50;;;;;;;-128.00;-1.00;-1.00;18496;320;7506067;-33
2023/06/23 08:08:05;;;;;;;16.60;12.20;;;;;;;-128.00;-1.00;-1.00;18507;292;7505342;-33
2023/06/23 08:10:31;;;;;;;31.40;11.70;;;;;;;-128.00;-1.00;-1.00;18507;284;7504648;-36
2023/06/23 08:12:56;;;;;;;19.10;10.30;;;;;;;-128.00;-1.00;-1.00;18496;292;7505289;-33
2023/06/23 08:15:22;;;;;;;21.80;12.10;;;;;;;-128.00;-1.00;-1.00;18528;292;7506386;-32
2023/06/23 08:17:48;;;;;;;15.60;10.00;;;;;;;-128.00;-1.00;-1.00;18520;292;7504487;-36
2023/06/23 08:20:14;;;;;;;17.50;9.90;;;;;;;-128.00;-1.00;-1.00;18491;292;7504739;-32
2023/06/23 08:22:40;;;;;;;15.70;10.70;;;;;;;-128.00;-1.00;-1.00;18515;292;7504249;-32
2023/06/23 08:25:07;;;;;;;11.70;9.60;;;;;;;-128.00;-1.00;-1.00;18506;292;7504170;-36
2023/06/23 08:27:33;;;;;;;18.30;12.70;;;;;;;-128.00;-1.00;-1.00;18531;292;7505134;-36
2023/06/23 08:29:58;;;;;;;20.10;12.30;;;;;;;-128.00;-1.00;-1.00;18521;292;7505526;-32
2023/06/23 08:32:25;;;;;;;16.60;11.50;;;;;;;-128.00;-1.00;-1.00;18532;333;7504883;-32
2023/06/23 08:34:51;;;;;;;15.70;10.90;;;;;;;-128.00;-1.00;-1.00;18924;292;7504457;-36
2023/06/23 08:37:17;;;;;;;18.20;12.80;;;;;;;-128.00;-1.00;-1.00;18933;292;7505133;-36
2023/06/23 08:39:44;;;;;;;17.10;13.10;;;;;;;-128.00;-1.00;-1.00;18914;292;7504989;-32
2023/06/23 08:42:09;;;;;;;16.60;12.40;;;;;;;-128.00;-1.00;-1.00;18516;284;7504496;-35
2023/06/23 08:44:37;;;;;;;17.00;10.80;;;;;;;-128.00;-1.00;-1.00;18512;292;7504185;-37
2023/06/23 08:47:04;;;;;;;32.30;11.00;;;;;;;-128.00;-1.00;-1.00;18517;292;7504961;-31
2023/06/23 08:49:34;;;;;;;16.90;9.50;;;;;;;-128.00;-1.00;-1.00;18534;292;7504278;-31
2023/06/23 08:52:00;;;;;;;12.60;11.10;;;;;;;-128.00;-1.00;-1.00;18528;292;7506285;-36
2023/06/23 08:54:26;;;;;;;12.80;11.40;;;;;;;-128.00;-1.00;-1.00;18511;292;7504364;-36
2023/06/23 08:56:52;;;;;;;24.30;12.30;;;;;;;-128.00;-1.00;-1.00;18928;292;7504767;-32
2023/06/23 08:59:19;;;;;;;15.40;12.60;;;;;;;-128.00;-1.00;-1.00;18917;292;7505152;-36
2023/06/23 09:01:45;;;;;;;18.70;10.90;;;;;;;-128.00;-1.00;-1.00;18503;292;7505861;-36
2023/06/23 09:04:11;;;;;;;16.10;13.10;;;;;;;-128.00;-1.00;-1.00;18923;285;7504571;-36
2023/06/23 09:06:37;;;;;;;12.30;10.20;;;;;;;-128.00;-1.00;-1.00;18916;292;7504252;-35
2023/06/23 09:09:04;;;;;;;18.10;9.80;;;;;;;-128.00;-1.00;-1.00;18884;292;7504239;-36
2023/06/23 09:11:30;;;;;;;14.60;10.20;;;;;;;-128.00;-1.00;-1.00;18929;285;7504742;-36
2023/06/23 09:13:56;;;;;;;19.00;9.40;;;;;;;-128.00;-1.00;-1.00;18922;292;7504518;-32
2023/06/23 09:16:22;;;;;;;9.20;7.50;;;;;;;-128.00;-1.00;-1.00;18494;292;7504938;-32
2023/06/23 09:18:48;;;;;;;11.30;8.30;;;;;;;-128.00;-1.00;-1.00;18505;292;7506563;-36
2023/06/23 09:21:14;;;;;;;18.80;12.40;;;;;;;-128.00;-1.00;-1.00;18521;292;7505131;-36
2023/06/23 09:23:56;;;;;;;10.80;9.80;;;;;;;-128.00;-1.00;-1.00;18182;292;8269210;-33
2023/06/23 09:26:22;;;;;;;9.40;7.00;;;;;;;-128.00;-1.00;-1.00;18535;292;7504587;-36
2023/06/23 09:28:49;;;;;;;12.80;10.30;;;;;;;-128.00;-1.00;-1.00;18906;292;7505844;-36
2023/06/23 09:31:16;;;;;;;15.20;10.80;;;;;;;-128.00;-1.00;-1.00;18509;292;7504371;-36
2023/06/23 09:33:54;;;;;;;11.70;10.10;;;;;;;-128.00;-1.00;-1.00;18492;292;7504506;-36
2023/06/23 09:36:20;;;;;;;20.50;6.90;;;;;;;-128.00;-1.00;-1.00;18518;292;7504313;-36
2023/06/23 09:38:46;;;;;;;11.70;10.50;;;;;;;-128.00;-1.00;-1.00;18534;292;7506154;-35
2023/06/23 09:41:13;;;;;;;13.40;8.40;;;;;;;-128.00;-1.00;-1.00;18478;293;7505090;-36
2023/06/23 09:43:46;;;;;;;16.20;9.60;;;;;;;-128.00;-1.00;-1.00;18495;292;7505760;-32
2023/06/23 09:46:15;;;;;;;12.00;9.40;;;;;;;-128.00;-1.00;-1.00;18511;292;7506250;-36
2023/06/23 09:48:45;;;;;;;12.80;8.20;;;;;;;-128.00;-1.00;-1.00;18492;292;7505098;-32
2023/06/23 09:51:12;;;;;;;22.00;8.30;;;;;;;-128.00;-1.00;-1.00;18508;292;7504556;-36
2023/06/23 09:53:40;;;;;;;7.20;6.20;;;;;;;-128.00;-1.00;-1.00;18513;292;7504091;-33
2023/06/23 09:56:07;;;;;;;7.30;6.60;;;;;;;-128.00;-1.00;-1.00;18519;292;7504345;-33
2023/06/23 09:58:37;;;;;;;27.80;4.70;;;;;;;-128.00;-1.00;-1.00;18514;285;7504672;-32
2023/06/23 10:01:04;;;;;;;6.00;5.40;;;;;;;-128.00;-1.00;-1.00;18537;292;7506424;-36
2023/06/23 10:03:31;;;;;;;5.70;5.20;;;;;;;-128.00;-1.00;-1.00;18483;292;7504505;-32
2023/06/23 10:05:57;;;;;;;6.70;5.10;;;;;;;-128.00;-1.00;-1.00;18529;292;7506259;-36
2023/06/23 10:08:23;;;;;;;5.60;3.00;;;;;;;-128.00;-1.00;-1.00;18531;292;7504370;-36
2023/06/23 10:10:49;;;;;;;4.70;4.30;;;;;;;-128.00;-1.00;-1.00;18500;292;7506017;-36
2023/06/23 10:13:15;;;;;;;6.30;5.70;;;;;;;-128.00;-1.00;-1.00;18933;292;7504824;-33
2023/06/23 10:15:41;;;;;;;5.90;3.80;;;;;;;-128.00;-1.00;-1.00;18932;292;7504892;-32
2023/06/23 10:18:10;;;;;;;7.40;6.60;;;;;;;-128.00;-1.00;-1.00;18901;292;7504537;-34
2023/06/23 10:20:36;;;;;;;10.90;5.90;;;;;;;-128.00;-1.00;-1.00;18488;345;7505821;-32
2023/06/23 10:23:02;;;;;;;6.60;6.00;;;;;;;-128.00;-1.00;-1.00;18488;294;7506429;-32
2023/06/23 10:25:28;;;;;;;7.00;5.40;;;;;;;-128.00;-1.00;-1.00;18523;292;7504883;-32
2023/06/23 10:27:55;;;;;;;5.10;4.20;;;;;;;-128.00;-1.00;-1.00;18905;292;7504814;-35
2023/06/23 10:30:21;;;;;;;9.60;5.60;;;;;;;-128.00;-1.00;-1.00;18520;292;7505384;-35
2023/06/23 10:32:53;;;;;;;6.20;5.60;;;;;;;-128.00;-1.00;-1.00;18522;292;7504650;-32
2023/06/23 10:35:23;;;;;;;5.10;4.30;;;;;;;-128.00;-1.00;-1.00;18520;292;7504374;-32
2023/06/23 10:37:50;;;;;;;8.90;4.70;;;;;;;-128.00;-1.00;-1.00;18566;292;7505840;-36
2023/06/23 10:40:19;;;;;;;5.20;4.70;;;;;;;-128.00;-1.00;-1.00;18508;292;7504532;-32
2023/06/23 10:42:47;;;;;;;10.00;5.90;;;;;;;-128.00;-1.00;-1.00;18512;292;7505528;-32
2023/06/23 10:45:13;;;;;;;11.00;4.10;;;;;;;-128.00;-1.00;-1.00;18523;292;7504707;-32
2023/06/23 10:47:39;;;;;;;2.70;2.50;;;;;;;-128.00;-1.00;-1.00;18941;292;7505199;-35
2023/06/23 10:50:07;;;;;;;3.00;2.30;;;;;;;-128.00;-1.00;-1.00;18517;292;7505046;-36
2023/06/23 10:52:33;;;;;;;5.00;2.80;;;;;;;-128.00;-1.00;-1.00;18520;292;7504553;-31
2023/06/23 10:54:59;;;;;;;8.60;2.00;;;;;;;-128.00;-1.00;-1.00;18519;292;7504664;-36
2023/06/23 10:57:25;;;;;;;3.00;2.60;;;;;;;-128.00;-1.00;-1.00;18521;295;7505968;-37
2023/06/23 11:00:05;;;;;;;3.40;2.40;;;;;;;-128.00;-1.00;-1.00;18505;344;7504396;-32
2023/06/23 11:02:55;;;;;;;4.60;3.10;;;;;;;-128.00;-1.00;-1.00;18510;292;7504153;-35
2023/06/23 11:05:21;;;;;;;9.80;2.50;;;;;;;-128.00;-1.00;-1.00;18516;292;7506323;-32
2023/06/23 11:07:59;;;;;;;4.70;2.90;;;;;;;-128.00;-1.00;-1.00;18483;292;7504739;-35
2023/06/23 11:10:39;;;;;;;4.10;3.10;;;;;;;-128.00;-1.00;-1.00;18520;292;7504406;-35
2023/06/23 11:13:11;;;;;;;5.30;2.40;;;;;;;-128.00;-1.00;-1.00;18494;292;7506147;-35
2023/06/23 11:15:36;;;;;;;6.10;2.40;;;;;;;-128.00;-1.00;-1.00;18522;292;7504279;-32
2023/06/23 11:18:06;;;;;;;9.30;2.90;;;;;;;-128.00;-1.00;-1.00;18542;292;7506173;-32
2023/06/23 11:20:35;;;;;;;5.80;3.00;;;;;;;-128.00;-1.00;-1.00;18492;292;7504879;-32
2023/06/23 11:23:05;;;;;;;10.30;3.60;;;;;;;-128.00;-1.00;-1.00;18517;292;7504805;-32
2023/06/23 11:25:37;;;;;;;4.40;2.30;;;;;;;-128.00;-1.00;-1.00;18512;292;7504506;-31
2023/06/23 11:28:33;;;;;;;6.30;3.30;;;;;;;-128.00;-1.00;-1.00;18477;294;7506069;-33
2023/06/23 11:31:07;;;;;;;4.60;1.70;;;;;;;-128.00;-1.00;-1.00;18501;292;7505833;-36
2023/06/23 11:33:35;;;;;;;2.10;1.70;;;;;;;-128.00;-1.00;-1.00;18492;305;7504642;-32
2023/06/23 11:36:03;;;;;;;5.10;2.40;;;;;;;-128.00;-1.00;-1.00;18502;292;7506147;-36
2023/06/23 11:38:29;;;;;;;2.30;1.70;;;;;;;-128.00;-1.00;-1.00;18506;292;7504611;-32
2023/06/23 11:40:56;;;;;;;4.30;2.70;;;;;;;-128.00;-1.00;-1.00;18508;292;7504199;-33
2023/06/23 11:43:22;;;;;;;4.60;2.80;;;;;;;-128.00;-1.00;-1.00;18528;292;7504861;-32
2023/06/23 11:45:55;;;;;;;2.90;2.60;;;;;;;-128.00;-1.00;-1.00;18534;292;7504391;-36
2023/06/23 11:48:22;;;;;;;5.30;2.70;;;;;;;-128.00;-1.00;-1.00;18526;292;7504236;-32
2023/06/23 11:50:48;;;;;;;6.00;4.40;;;;;;;-128.00;-1.00;-1.00;18479;292;7505781;-33
2023/06/23 11:53:15;;;;;;;7.30;3.90;;;;;;;-128.00;-1.00;-1.00;18499;292;7505410;-32
2023/06/23 11:55:41;;;;;;;4.30;3.90;;;;;;;-128.00;-1.00;-1.00;18497;292;7504993;-36
2023/06/23 11:58:08;;;;;;;16.70;4.70;;;;;;;-128.00;-1.00;-1.00;18523;292;7504893;-32
2023/06/23 12:00:34;;;;;;;7.20;5.20;;;;;;;-128.00;-1.00;-1.00;18493;292;7505992;-33
2023/06/23 12:02:59;;;;;;;5.80;4.50;;;;;;;-128.00;-1.00;-1.00;18528;292;7505916;-33
2023/06/23 12:05:27;;;;;;;5.40;4.40;;;;;;;-128.00;-1.00;-1.00;18912;292;7505056;-36